createdAt,value
2018-12-29T00:02:28.603Z,82.96
2018-12-29T00:07:42.612Z,83.15
2018-12-29T00:12:50.257Z,84.17
2018-12-29T00:18:04.307Z,83.47
2018-12-29T00:23:12.658Z,84.02
2018-12-29T00:28:26.699Z,83.40
2018-12-29T00:33:40.045Z,82.69
2018-12-29T00:38:47.139Z,82.00
2018-12-29T00:49:43.360Z,81.47
2018-12-29T00:54:49.810Z,81.33
2018-12-29T01:00:04.922Z,81.67
2018-12-29T01:05:12.773Z,81.54
2018-12-29T01:10:07.607Z,80.64
2018-12-29T01:15:21.614Z,80.70
2018-12-29T01:20:29.175Z,81.21
2018-12-29T01:25:43.164Z,81.51
2018-12-29T01:30:49.999Z,82.08
2018-12-29T01:36:04.632Z,82.66
2018-12-29T01:41:12.206Z,83.18
2018-12-29T01:52:26.848Z,83.69
2018-12-29T01:57:21.527Z,83.89
2018-12-29T02:08:52.892Z,83.08
2018-12-29T02:14:06.872Z,82.83
2018-12-29T02:19:14.890Z,82.27
2018-12-29T02:25:04.981Z,83.04
2018-12-29T02:30:21.524Z,84.61
2018-12-29T02:35:30.652Z,86.00
2018-12-29T02:57:26.843Z,86.98
2018-12-29T03:02:40.833Z,86.19
2018-12-29T03:07:49.273Z,86.50
2018-12-29T03:13:21.111Z,86.23
2018-12-29T03:24:06.187Z,85.87
2018-12-29T03:29:59.077Z,86.19
2018-12-29T03:35:33.661Z,85.72
2018-12-29T03:46:53.487Z,84.27
2018-12-29T03:58:07.309Z,84.30
2018-12-29T04:09:13.120Z,84.54
2018-12-29T04:14:27.127Z,84.50
2018-12-29T04:19:35.064Z,84.14
2018-12-29T04:24:49.047Z,83.68
2018-12-29T04:29:57.024Z,83.50
2018-12-29T04:35:10.998Z,83.36
2018-12-29T04:40:17.420Z,83.68
2018-12-29T04:45:12.055Z,84.14
2018-12-29T04:50:44.007Z,83.58
2018-12-29T04:55:38.619Z,83.73
2018-12-29T05:01:10.706Z,83.59
2018-12-29T05:06:24.697Z,83.30
2018-12-29T05:17:17.449Z,82.67
2018-12-29T05:22:25.483Z,83.60
2018-12-29T05:27:39.479Z,84.31
2018-12-29T05:32:46.859Z,84.75
2018-12-29T05:37:54.911Z,85.50
2018-12-29T05:43:06.135Z,85.02
2018-12-29T05:48:20.153Z,84.78
2018-12-29T05:53:27.593Z,84.64
2018-12-29T05:58:41.582Z,84.20
2018-12-29T06:03:48.800Z,84.11
2018-12-29T06:09:04.263Z,85.12
2018-12-29T06:19:48.898Z,84.27
2018-12-29T06:24:43.544Z,82.98
2018-12-29T06:46:40.993Z,78.63
2018-12-29T06:51:54.357Z,79.57
2018-12-29T06:57:01.969Z,79.41
2018-12-29T07:02:16.033Z,79.36
2018-12-29T07:24:12.495Z,78.86
2018-12-29T07:29:26.531Z,78.49
2018-12-29T07:34:34.627Z,78.87
2018-12-29T07:39:29.234Z,79.12
2018-12-29T07:50:53.699Z,78.38
2018-12-29T07:56:07.680Z,78.58
2018-12-29T08:01:39.943Z,78.20
2018-12-29T08:06:59.595Z,78.19
2018-12-29T08:11:54.232Z,77.93
2018-12-29T08:17:08.271Z,77.74
2018-12-29T08:22:21.811Z,77.33
2018-12-29T08:33:06.980Z,77.65
2018-12-29T08:38:38.700Z,77.00
2018-12-29T08:43:52.682Z,76.45
2018-12-29T08:54:29.026Z,79.53
2018-12-29T08:59:43.053Z,80.36
2018-12-29T09:10:09.104Z,79.83
2018-12-29T09:15:23.846Z,79.79
2018-12-29T09:20:18.502Z,79.67
2018-12-29T09:25:32.603Z,79.64
2018-12-29T09:30:46.587Z,79.43
2018-12-29T09:35:41.180Z,78.77
2018-12-29T09:40:51.858Z,78.30
2018-12-29T09:46:10.505Z,78.05
2018-12-29T09:57:27.284Z,78.71
2018-12-29T10:02:34.735Z,77.62
2018-12-29T10:07:48.725Z,78.14
2018-12-29T10:12:56.821Z,77.84
2018-12-29T10:18:10.795Z,78.17
2018-12-29T10:23:19.185Z,77.24
2018-12-29T10:28:33.172Z,77.91
2018-12-29T10:33:27.797Z,78.11
2018-12-29T10:38:34.215Z,78.36
2018-12-29T10:43:41.465Z,78.66
2018-12-29T10:48:55.442Z,77.33
2018-12-29T10:54:04.459Z,76.55
2018-12-29T10:59:18.521Z,76.17
2018-12-29T11:04:25.523Z,76.46
2018-12-29T11:09:39.508Z,76.30
2018-12-29T11:14:47.727Z,76.38
2018-12-29T11:20:01.695Z,75.74
2018-12-29T11:25:08.847Z,75.74
2018-12-29T11:30:23.233Z,75.82
2018-12-29T11:35:29.728Z,76.12
2018-12-29T11:40:37.923Z,74.96
2018-12-29T11:45:51.972Z,75.36
2018-12-29T11:50:59.737Z,75.78
2018-12-29T11:55:54.640Z,75.18
2018-12-29T12:01:08.622Z,73.92
2018-12-29T12:06:05.037Z,72.82
2018-12-29T12:11:19.146Z,72.13
2018-12-29T12:16:33.188Z,72.32
2018-12-29T12:21:40.439Z,71.93
2018-12-29T12:26:54.100Z,72.33
2018-12-29T12:32:00.604Z,73.07
2018-12-29T12:37:09.038Z,72.40
2018-12-29T12:42:17.106Z,72.09
2018-12-29T12:47:25.359Z,71.58
2018-12-29T12:52:39.399Z,71.22
2018-12-29T12:57:46.993Z,71.03
2018-12-29T13:03:01.346Z,71.31
2018-12-29T13:07:56.007Z,71.64
2018-12-29T13:13:10.239Z,72.09
2018-12-29T13:18:24.273Z,71.80
2018-12-29T13:23:31.986Z,71.03
2018-12-29T13:28:50.890Z,71.47
2018-12-29T13:34:04.952Z,71.40
2018-12-29T13:38:59.586Z,71.37
2018-12-29T13:44:10.191Z,71.33
2018-12-29T13:49:24.181Z,71.48
2018-12-29T13:54:32.386Z,71.54
2018-12-29T13:59:48.760Z,71.32
2018-12-29T14:04:56.462Z,71.56
2018-12-29T14:10:10.468Z,72.14
2018-12-29T14:15:31.167Z,72.26
2018-12-29T14:20:38.586Z,72.00
2018-12-29T14:25:33.225Z,72.57
2018-12-29T14:30:47.287Z,73.58
2018-12-29T14:35:54.632Z,74.19
2018-12-29T14:41:03.440Z,73.12
2018-12-29T14:46:11.611Z,73.48
2018-12-29T14:51:28.365Z,73.36
2018-12-29T14:56:36.793Z,73.89
2018-12-29T15:01:50.765Z,74.06
2018-12-29T15:06:58.187Z,75.08
2018-12-29T15:12:12.246Z,74.64
2018-12-29T15:17:25.803Z,74.26
2018-12-29T15:22:33.728Z,74.58
2018-12-29T15:27:47.781Z,74.49
2018-12-29T15:33:19.835Z,74.50
2018-12-29T15:38:27.830Z,73.97
2018-12-29T15:43:35.717Z,73.92
2018-12-29T15:48:42.957Z,73.85
2018-12-29T15:54:23.984Z,74.86
2018-12-29T15:59:32.129Z,74.83
2018-12-29T16:04:46.113Z,74.10
2018-12-29T16:09:53.964Z,73.05
2018-12-29T16:15:08.074Z,73.12
2018-12-29T16:20:15.430Z,73.62
2018-12-29T16:25:29.776Z,73.39
2018-12-29T16:35:57.255Z,73.26
2018-12-29T16:40:57.829Z,73.19
2018-12-29T16:46:07.671Z,73.55
2018-12-29T16:51:14.727Z,73.33
2018-12-29T16:56:28.996Z,74.13
2018-12-29T17:01:36.861Z,73.92
2018-12-29T17:06:31.523Z,74.22
2018-12-29T17:11:52.296Z,74.48
2018-12-29T17:16:57.776Z,74.11
2018-12-29T17:22:11.881Z,74.37
2018-12-29T17:27:20.076Z,74.49
2018-12-29T17:32:36.395Z,75.09
2018-12-29T17:37:43.789Z,75.53
2018-12-29T17:42:51.772Z,75.69
2018-12-29T17:47:46.401Z,76.02
2018-12-29T17:58:18.005Z,76.59
2018-12-29T18:03:26.061Z,77.16
2018-12-29T18:08:41.789Z,77.10
2018-12-29T18:13:50.036Z,77.44
2018-12-29T18:19:04.221Z,76.12
2018-12-29T18:24:15.025Z,76.87
2018-12-29T18:29:29.084Z,77.16
2018-12-29T18:34:38.400Z,76.98
2018-12-29T18:39:52.465Z,78.21
2018-12-29T18:45:00.999Z,78.11
2018-12-29T18:50:15.012Z,78.79
2018-12-29T18:55:22.943Z,78.42
2018-12-29T19:00:37.212Z,79.35
2018-12-29T19:05:45.088Z,79.09
2018-12-29T19:10:59.086Z,78.74
2018-12-29T19:16:06.322Z,78.97
2018-12-29T19:21:21.231Z,78.99
2018-12-29T19:26:16.725Z,79.00
2018-12-29T19:31:32.452Z,78.86
2018-12-29T19:36:28.919Z,77.65
2018-12-29T19:41:38.217Z,78.37
2018-12-29T19:46:52.195Z,79.10
2018-12-29T19:51:59.441Z,79.57
2018-12-29T19:56:54.448Z,80.20
2018-12-29T20:02:10.158Z,80.41
2018-12-29T20:07:16.977Z,80.54
2018-12-29T20:12:11.773Z,80.78
2018-12-29T20:17:25.760Z,81.07
2018-12-29T20:22:20.594Z,81.12
2018-12-29T20:27:34.580Z,80.75
2018-12-29T20:32:48.837Z,80.34
2018-12-29T20:37:56.346Z,81.21
2018-12-29T20:43:03.161Z,80.94
2018-12-29T20:48:17.151Z,80.66
2018-12-29T20:53:25.634Z,80.09
2018-12-29T20:58:39.698Z,80.49
2018-12-29T21:03:47.860Z,81.14
2018-12-29T21:09:02.233Z,80.48
2018-12-29T21:14:10.239Z,80.89
2018-12-29T21:19:24.233Z,81.06
2018-12-29T21:24:32.337Z,81.06
2018-12-29T21:29:46.360Z,80.91
2018-12-29T21:34:53.194Z,81.15
2018-12-29T21:40:07.318Z,80.85
2018-12-29T21:45:21.319Z,80.44
2018-12-29T21:50:28.750Z,80.52
2018-12-29T21:55:43.394Z,80.81
2018-12-29T22:00:57.951Z,80.14
2018-12-29T22:06:05.924Z,79.73
2018-12-29T22:11:19.899Z,80.41
2018-12-29T22:16:27.860Z,79.88
2018-12-29T22:21:41.842Z,79.13
2018-12-29T22:26:52.705Z,79.13
2018-12-29T22:32:06.699Z,79.07
2018-12-29T22:37:23.513Z,78.81
2018-12-29T22:42:31.654Z,79.79
2018-12-29T22:47:45.644Z,78.74
2018-12-29T22:52:54.051Z,78.52
2018-12-29T22:58:08.786Z,78.33
2018-12-29T23:03:17.493Z,78.37
2018-12-29T23:08:33.429Z,78.21
2018-12-29T23:13:41.575Z,77.94
2018-12-29T23:18:36.313Z,77.91
2018-12-29T23:23:50.385Z,78.83
2018-12-29T23:28:57.764Z,77.78
2018-12-29T23:34:11.781Z,77.43
2018-12-29T23:39:20.336Z,77.49
2018-12-29T23:44:34.674Z,77.70
2018-12-29T23:49:42.734Z,77.63
2018-12-29T23:54:57.101Z,77.86
